createdAt,value
2018-02-21T00:01:18.967Z,91.57
2018-02-21T00:03:47.867Z,92.80
2018-02-21T00:06:16.001Z,79.63
2018-02-21T00:08:44.931Z,86.17
2018-02-21T00:11:13.070Z,85.70
2018-02-21T00:13:42.008Z,85.07
2018-02-21T00:16:10.141Z,88.93
2018-02-21T00:18:39.065Z,88.53
2018-02-21T00:21:07.209Z,83.67
2018-02-21T00:23:35.365Z,80.53
2018-02-21T00:26:04.268Z,85.10
2018-02-21T00:28:33.189Z,93.63
2018-02-21T00:31:01.324Z,86.83
2018-02-21T00:33:30.265Z,92.50
2018-02-21T00:35:58.408Z,90.97
2018-02-21T00:38:26.561Z,88.00
2018-02-21T00:40:55.466Z,93.13
2018-02-21T00:43:23.665Z,77.90
2018-02-21T00:45:51.850Z,82.53
2018-02-21T00:48:20.597Z,81.27
2018-02-21T00:50:48.754Z,89.90
2018-02-21T00:53:17.664Z,93.67
2018-02-21T00:55:45.816Z,88.73
2018-02-21T00:58:14.729Z,93.93
2018-02-21T01:00:42.970Z,85.80
2018-02-21T01:03:11.200Z,97.27
2018-02-21T01:05:39.360Z,84.23
2018-02-21T01:08:07.512Z,90.47
2018-02-21T01:10:36.441Z,86.00
2018-02-21T01:13:04.600Z,83.53
2018-02-21T01:15:32.817Z,79.37
2018-02-21T01:18:00.978Z,83.80
2018-02-21T01:20:29.241Z,82.10
2018-02-21T01:22:57.406Z,80.80
2018-02-21T01:25:25.625Z,77.00
2018-02-21T01:27:53.781Z,84.53
2018-02-21T01:30:21.948Z,82.30
2018-02-21T01:32:50.112Z,79.50
2018-02-21T01:35:18.245Z,90.17
2018-02-21T01:37:47.165Z,87.13
2018-02-21T01:40:15.301Z,86.33
2018-02-21T01:42:44.224Z,78.53
2018-02-21T01:45:12.361Z,82.50
2018-02-21T01:47:41.268Z,84.80
2018-02-21T01:50:09.405Z,71.70
2018-02-21T01:52:37.553Z,82.10
2018-02-21T01:55:05.694Z,83.77
2018-02-21T01:57:33.856Z,83.87
2018-02-21T02:00:02.008Z,91.60
2018-02-21T02:02:30.160Z,83.13
2018-02-21T02:04:58.297Z,102.20
2018-02-21T02:07:26.449Z,85.27
2018-02-21T02:09:54.594Z,88.57
2018-02-21T02:12:22.758Z,75.27
2018-02-21T02:14:50.905Z,86.37
2018-02-21T02:17:19.132Z,78.07
2018-02-21T02:19:48.036Z,83.23
2018-02-21T02:22:16.198Z,87.63
2018-02-21T02:24:45.114Z,82.50
2018-02-21T02:27:13.288Z,86.60
2018-02-21T02:29:41.441Z,84.20
2018-02-21T02:32:10.342Z,85.00
2018-02-21T02:34:38.504Z,77.60
2018-02-21T02:37:06.644Z,85.87
2018-02-21T02:39:51.540Z,86.37
2018-02-21T02:42:19.686Z,80.57
2018-02-21T02:44:47.842Z,87.60
2018-02-21T02:47:15.987Z,85.70
2018-02-21T02:49:44.149Z,97.87
2018-02-21T02:52:12.288Z,91.60
2018-02-21T02:54:41.218Z,88.70
2018-02-21T02:57:09.355Z,80.70
2018-02-21T02:59:37.545Z,90.53
2018-02-21T03:02:06.448Z,83.33
2018-02-21T03:04:34.600Z,87.57
2018-02-21T03:07:03.505Z,84.80
2018-02-21T03:09:31.668Z,91.87
2018-02-21T03:11:59.800Z,92.23
2018-02-21T03:14:27.941Z,90.37
2018-02-21T03:16:56.101Z,86.90
2018-02-21T03:19:24.244Z,103.33
2018-02-21T03:21:53.179Z,92.10
2018-02-21T03:24:21.333Z,87.20
2018-02-21T03:26:49.492Z,84.87
2018-02-21T03:29:18.413Z,84.50
2018-02-21T03:31:46.573Z,99.27
2018-02-21T03:34:14.717Z,89.23
2018-02-21T03:36:42.878Z,76.87
2018-02-21T03:39:11.026Z,82.30
2018-02-21T03:41:39.186Z,100.57
2018-02-21T03:44:07.329Z,85.97
2018-02-21T03:46:36.257Z,87.93
2018-02-21T03:49:04.398Z,93.87
2018-02-21T03:51:32.572Z,90.73
2018-02-21T03:54:00.717Z,83.57
2018-02-21T03:56:28.877Z,88.43
2018-02-21T03:58:57.015Z,86.70
2018-02-21T04:01:25.192Z,86.10
2018-02-21T04:03:53.335Z,96.47
2018-02-21T04:06:21.490Z,97.23
2018-02-21T04:08:50.422Z,89.23
2018-02-21T04:11:18.589Z,80.13
2018-02-21T04:13:46.744Z,88.30
2018-02-21T04:16:15.652Z,81.03
2018-02-21T04:18:43.808Z,78.10
2018-02-21T04:21:12.722Z,81.67
2018-02-21T04:23:40.905Z,78.13
2018-02-21T04:26:09.049Z,84.07
2018-02-21T04:28:37.217Z,69.47
2018-02-21T04:31:05.365Z,82.53
2018-02-21T04:33:33.526Z,77.97
2018-02-21T04:36:01.666Z,80.53
2018-02-21T04:38:29.829Z,72.67
2018-02-21T04:40:57.969Z,79.20
2018-02-21T04:43:26.897Z,75.60
2018-02-21T04:45:55.093Z,80.97
2018-02-21T04:48:23.245Z,80.67
2018-02-21T04:50:51.384Z,75.27
2018-02-21T04:53:20.313Z,78.53
2018-02-21T04:59:00.272Z,67.73
2018-02-21T05:01:28.420Z,77.03
2018-02-21T05:03:57.353Z,75.73
2018-02-21T05:06:25.519Z,75.20
2018-02-21T05:08:53.728Z,80.97
2018-02-21T05:11:21.896Z,81.70
2018-02-21T05:13:50.032Z,71.90
2018-02-21T05:16:18.190Z,81.50
2018-02-21T05:18:46.334Z,80.07
2018-02-21T05:21:14.502Z,71.67
2018-02-21T05:23:42.646Z,82.73
2018-02-21T05:26:10.801Z,79.77
2018-02-21T05:28:38.941Z,75.43
2018-02-21T05:31:07.888Z,79.37
2018-02-21T05:33:36.027Z,83.80
2018-02-21T05:36:04.202Z,79.13
2018-02-21T05:38:32.336Z,84.37
2018-02-21T05:41:00.506Z,76.10
2018-02-21T05:43:28.646Z,88.90
2018-02-21T05:45:56.862Z,77.27
2018-02-21T05:48:24.978Z,76.07
2018-02-21T05:50:53.132Z,86.27
2018-02-21T05:53:21.264Z,84.07
2018-02-21T05:55:49.429Z,77.33
2018-02-21T05:58:17.565Z,82.17
2018-02-21T06:00:45.724Z,75.07
2018-02-21T06:03:13.880Z,79.40
2018-02-21T06:05:42.569Z,82.50
2018-02-21T06:08:10.730Z,74.73
2018-02-21T06:10:39.641Z,72.83
2018-02-21T06:13:07.816Z,89.67
2018-02-21T06:15:36.725Z,77.73
2018-02-21T06:18:04.880Z,75.67
2018-02-21T06:20:33.782Z,68.23
2018-02-21T06:23:01.937Z,76.43
2018-02-21T06:25:30.072Z,78.27
2018-02-21T06:27:58.225Z,80.93
2018-02-21T06:30:26.364Z,76.30
2018-02-21T06:32:55.287Z,71.17
2018-02-21T06:35:23.455Z,78.00
2018-02-21T06:37:51.616Z,88.33
2018-02-21T06:40:19.752Z,83.00
2018-02-21T06:42:47.901Z,78.53
2018-02-21T06:45:16.029Z,72.43
2018-02-21T06:47:44.188Z,72.63
2018-02-21T06:50:13.093Z,75.67
2018-02-21T06:52:41.260Z,75.27
2018-02-21T06:55:09.407Z,77.07
2018-02-21T06:57:38.321Z,75.20
2018-02-21T07:00:07.236Z,79.60
2018-02-21T07:02:36.168Z,80.53
2018-02-21T07:05:04.316Z,75.80
2018-02-21T07:07:32.453Z,73.00
2018-02-21T07:10:00.622Z,73.13
2018-02-21T07:12:29.524Z,70.73
2018-02-21T07:14:57.685Z,64.27
2018-02-21T07:17:25.848Z,77.87
2018-02-21T07:19:54.785Z,68.87
2018-02-21T07:22:22.928Z,65.03
2018-02-21T07:24:51.101Z,60.57
2018-02-21T07:27:19.241Z,71.90
2018-02-21T07:29:47.405Z,70.40
2018-02-21T07:32:15.556Z,67.77
2018-02-21T07:34:43.725Z,58.40
2018-02-21T07:37:11.921Z,65.33
2018-02-21T07:39:40.167Z,68.07
2018-02-21T07:42:08.362Z,70.30
2018-02-21T07:44:36.626Z,62.27
2018-02-21T07:47:04.840Z,68.13
2018-02-21T07:49:33.780Z,65.47
2018-02-21T07:52:02.036Z,61.50
2018-02-21T07:54:30.202Z,59.93
2018-02-21T07:56:58.422Z,61.40
2018-02-21T07:59:26.591Z,60.83
2018-02-21T08:01:54.732Z,69.63
2018-02-21T08:04:22.893Z,63.73
2018-02-21T08:06:51.825Z,67.87
2018-02-21T08:09:19.966Z,62.23
2018-02-21T08:11:48.141Z,58.70
2018-02-21T08:14:16.283Z,53.33
2018-02-21T08:16:45.213Z,59.90
2018-02-21T08:19:13.415Z,61.27
2018-02-21T08:21:42.545Z,62.47
2018-02-21T08:24:10.685Z,52.80
2018-02-21T08:26:39.785Z,59.27
2018-02-21T08:29:07.943Z,57.57
2018-02-21T08:31:36.103Z,57.83
2018-02-21T08:34:04.245Z,61.20
2018-02-21T08:36:33.163Z,51.90
2018-02-21T08:39:01.333Z,56.33
2018-02-21T08:41:29.465Z,56.93
2018-02-21T08:43:57.616Z,55.37
2018-02-21T08:46:25.740Z,53.10
2018-02-21T08:48:53.889Z,57.97
2018-02-21T08:51:22.012Z,53.63
2018-02-21T08:53:50.161Z,54.10
2018-02-21T08:56:18.302Z,53.63
2018-02-21T08:58:46.467Z,54.10
2018-02-21T09:01:14.599Z,57.60
2018-02-21T09:03:42.741Z,53.60
2018-02-21T09:06:12.549Z,50.67
2018-02-21T09:08:41.459Z,51.57
2018-02-21T09:11:09.592Z,51.17
2018-02-21T09:13:37.741Z,54.33
2018-02-21T09:16:05.937Z,48.83
2018-02-21T09:18:34.096Z,51.60
2018-02-21T09:21:02.228Z,47.27
2018-02-21T09:23:30.377Z,51.00
2018-02-21T09:25:59.286Z,46.57
2018-02-21T09:28:27.441Z,47.70
2018-02-21T09:30:56.340Z,44.93
2018-02-21T09:33:25.320Z,43.43
2018-02-21T09:35:57.525Z,46.33
2018-02-21T09:38:25.688Z,49.83
2018-02-21T09:40:53.821Z,47.67
2018-02-21T09:43:21.949Z,51.53
2018-02-21T09:45:50.097Z,49.70
2018-02-21T09:48:18.234Z,44.73
2018-02-21T09:50:46.380Z,47.53
2018-02-21T09:53:14.510Z,44.60
2018-02-21T09:55:42.702Z,40.17
2018-02-21T09:58:11.597Z,44.43
2018-02-21T10:00:40.513Z,44.70
2018-02-21T10:03:08.645Z,45.37
2018-02-21T10:05:36.793Z,42.77
2018-02-21T10:08:04.957Z,40.97
2018-02-21T10:10:33.105Z,45.10
2018-02-21T10:13:01.233Z,49.03
2018-02-21T10:15:29.377Z,39.03
2018-02-21T10:17:57.508Z,43.30
2018-02-21T10:20:25.682Z,43.00
2018-02-21T10:22:53.805Z,35.43
2018-02-21T10:25:22.712Z,40.10
2018-02-21T10:27:51.605Z,37.00
2018-02-21T10:30:19.753Z,43.30
2018-02-21T10:32:47.900Z,40.03
2018-02-21T10:35:16.028Z,38.17
2018-02-21T10:37:44.180Z,39.37
2018-02-21T10:40:13.081Z,34.60
2018-02-21T10:42:41.992Z,35.83
2018-02-21T10:45:10.125Z,37.13
2018-02-21T10:47:38.281Z,35.07
2018-02-21T10:50:06.409Z,31.07
2018-02-21T10:52:34.558Z,33.10
2018-02-21T10:55:03.492Z,31.30
2018-02-21T10:57:31.675Z,35.20
2018-02-21T10:59:59.821Z,33.77
2018-02-21T11:02:27.973Z,34.90
2018-02-21T11:04:56.934Z,33.27
2018-02-21T11:07:25.033Z,33.80
2018-02-21T11:09:53.934Z,37.43
2018-02-21T11:12:22.094Z,34.27
2018-02-21T11:14:50.988Z,32.17
2018-02-21T11:17:19.145Z,32.33
2018-02-21T11:19:48.056Z,36.50
2018-02-21T11:22:16.222Z,32.93
2018-02-21T11:24:48.367Z,35.33
2018-02-21T11:27:16.542Z,37.30
2018-02-21T11:29:44.678Z,40.77
2018-02-21T11:32:12.818Z,37.57
2018-02-21T11:34:40.977Z,33.27
2018-02-21T11:37:09.886Z,35.03
2018-02-21T11:39:38.036Z,32.00
2018-02-21T11:42:06.958Z,33.63
2018-02-21T11:44:35.121Z,32.80
2018-02-21T11:47:03.288Z,29.80
2018-02-21T11:49:32.214Z,31.77
2018-02-21T11:52:00.386Z,30.40
2018-02-21T11:54:28.658Z,27.17
2018-02-21T11:56:56.834Z,31.33
2018-02-21T11:59:25.018Z,30.30
2018-02-21T12:01:53.161Z,28.47
2018-02-21T12:04:21.322Z,32.47
2018-02-21T12:06:50.224Z,24.77
2018-02-21T12:09:18.411Z,29.50
2018-02-21T12:11:46.563Z,28.30
2018-02-21T12:14:14.727Z,26.70
2018-02-21T12:16:43.655Z,29.10
2018-02-21T12:19:11.817Z,26.23
2018-02-21T12:21:40.004Z,27.83
2018-02-21T12:24:08.170Z,26.47
2018-02-21T12:26:36.317Z,28.90
2018-02-21T12:29:05.241Z,26.90
2018-02-21T12:31:33.380Z,27.10
2018-02-21T12:34:01.549Z,29.03
2018-02-21T12:36:30.469Z,28.77
2018-02-21T12:39:04.126Z,28.77
2018-02-21T12:41:37.850Z,29.70
2018-02-21T12:44:06.817Z,30.83
2018-02-21T12:46:35.038Z,28.87
2018-02-21T12:49:11.160Z,25.07
2018-02-21T12:51:40.079Z,28.60
2018-02-21T12:54:08.220Z,26.70
2018-02-21T12:56:36.380Z,27.83
2018-02-21T12:59:04.552Z,29.33
2018-02-21T13:01:32.770Z,24.47
2018-02-21T13:04:01.755Z,26.20
2018-02-21T13:06:30.431Z,28.30
2018-02-21T13:08:59.332Z,43.10
2018-02-21T13:11:28.981Z,28.37
2018-02-21T13:13:57.218Z,26.77
2018-02-21T13:16:25.348Z,33.57
2018-02-21T13:18:53.485Z,31.03
2018-02-21T13:21:22.466Z,55.10
2018-02-21T13:23:50.604Z,30.30
2018-02-21T13:26:22.332Z,26.63
2018-02-21T13:28:50.465Z,29.17
2018-02-21T13:31:18.853Z,27.30
2018-02-21T13:33:46.989Z,25.43
2018-02-21T13:36:38.238Z,26.67
2018-02-21T13:39:06.373Z,26.27
2018-02-21T13:41:34.532Z,27.30
2018-02-21T13:44:02.682Z,27.80
2018-02-21T13:46:39.255Z,24.90
2018-02-21T13:49:07.388Z,26.63
2018-02-21T13:51:35.561Z,28.83
2018-02-21T13:54:03.813Z,26.23
2018-02-21T13:56:31.964Z,31.20
2018-02-21T13:59:00.122Z,28.67
2018-02-21T14:01:28.260Z,26.23
2018-02-21T14:03:56.503Z,26.43
2018-02-21T14:06:24.688Z,26.43
2018-02-21T14:08:53.628Z,27.23
2018-02-21T14:11:21.773Z,45.93
2018-02-21T14:13:49.928Z,30.47
2018-02-21T14:16:22.340Z,34.77
2018-02-21T14:18:50.497Z,29.90
2018-02-21T14:21:18.637Z,26.87
2018-02-21T14:23:47.567Z,30.53
2018-02-21T14:26:18.928Z,31.87
2018-02-21T14:28:48.504Z,28.60
2018-02-21T14:31:17.514Z,30.50
2018-02-21T14:33:46.440Z,30.07
2018-02-21T14:36:14.586Z,29.20
2018-02-21T14:38:42.944Z,26.30
2018-02-21T14:41:11.117Z,28.33
2018-02-21T14:43:39.273Z,27.53
2018-02-21T14:46:08.185Z,30.27
2018-02-21T14:48:36.381Z,30.50
2018-02-21T14:51:04.525Z,30.30
2018-02-21T14:53:32.665Z,34.47
2018-02-21T14:56:00.835Z,29.73
2018-02-21T14:58:29.761Z,30.73
2018-02-21T15:00:57.929Z,32.10
2018-02-21T15:03:26.853Z,28.40
2018-02-21T15:05:59.968Z,30.37
2018-02-21T15:08:28.161Z,30.93
2018-02-21T15:10:56.333Z,30.37
2018-02-21T15:13:24.486Z,33.00
2018-02-21T15:15:52.662Z,30.03
2018-02-21T15:18:20.863Z,32.13
2018-02-21T15:20:49.877Z,32.50
2018-02-21T15:23:18.059Z,32.50
2018-02-21T15:25:46.273Z,31.40
2018-02-21T15:28:14.514Z,30.80
2018-02-21T15:30:42.770Z,37.27
2018-02-21T15:33:11.739Z,32.87
2018-02-21T15:35:43.961Z,30.90
2018-02-21T15:38:12.895Z,30.00
2018-02-21T15:40:41.147Z,32.90
2018-02-21T15:43:09.351Z,30.57
2018-02-21T15:45:38.282Z,32.97
2018-02-21T15:48:06.445Z,29.87
2018-02-21T15:50:34.585Z,36.10
2018-02-21T15:53:02.733Z,30.17
2018-02-21T15:55:30.921Z,30.17
2018-02-21T15:57:59.069Z,39.63
2018-02-21T16:00:27.203Z,31.07
2018-02-21T16:02:56.125Z,29.77
2018-02-21T16:05:24.269Z,30.37
2018-02-21T16:07:52.422Z,30.37
2018-02-21T16:10:21.329Z,33.07
2018-02-21T16:12:49.473Z,32.03
2018-02-21T16:15:17.599Z,27.77
2018-02-21T16:17:45.748Z,33.33
2018-02-21T16:20:14.645Z,28.27
2018-02-21T16:22:42.801Z,34.70
2018-02-21T16:25:11.702Z,29.23
2018-02-21T16:27:39.833Z,31.47
2018-02-21T16:30:07.976Z,35.10
2018-02-21T16:32:36.106Z,30.23
2018-02-21T16:35:05.017Z,30.30
2018-02-21T16:37:33.169Z,32.27
2018-02-21T16:40:02.084Z,28.57
2018-02-21T16:42:30.221Z,28.47
2018-02-21T16:44:58.369Z,28.80
2018-02-21T16:47:26.501Z,25.07
2018-02-21T16:49:54.655Z,36.00
2018-02-21T16:52:22.796Z,27.40
2018-02-21T16:54:50.943Z,27.40
2018-02-21T16:57:19.069Z,25.90
2018-02-21T16:59:47.225Z,27.13
2018-02-21T17:02:15.358Z,24.93
2018-02-21T17:04:43.532Z,25.60
2018-02-21T17:07:11.669Z,28.13
2018-02-21T17:09:40.590Z,27.60
2018-02-21T17:12:08.716Z,28.63
2018-02-21T17:14:36.886Z,27.90
2018-02-21T17:17:05.021Z,26.73
2018-02-21T17:19:33.160Z,26.40
2018-02-21T17:22:01.318Z,29.50
2018-02-21T17:24:30.217Z,29.57
2018-02-21T17:26:59.140Z,29.10
2018-02-21T17:29:27.268Z,31.37
2018-02-21T17:31:56.179Z,31.50
2018-02-21T17:34:24.305Z,27.40
2018-02-21T17:36:52.462Z,32.00
2018-02-21T17:39:20.596Z,31.57
2018-02-21T17:41:49.512Z,39.93
2018-02-21T17:44:17.633Z,35.90
2018-02-21T17:46:46.553Z,44.33
2018-02-21T17:49:14.677Z,33.43
2018-02-21T17:51:42.824Z,30.93
2018-02-21T17:54:10.949Z,39.17
2018-02-21T17:56:39.868Z,33.17
2018-02-21T17:59:08.001Z,37.70
2018-02-21T18:01:36.157Z,55.37
2018-02-21T18:04:04.312Z,31.33
2018-02-21T18:06:32.473Z,40.00
2018-02-21T18:09:00.600Z,33.87
2018-02-21T18:11:28.732Z,28.67
2018-02-21T18:13:56.885Z,34.17
2018-02-21T18:16:25.037Z,30.60
2018-02-21T18:18:53.196Z,35.13
2018-02-21T18:21:27.717Z,33.27
2018-02-21T18:23:55.867Z,33.43
2018-02-21T18:26:24.000Z,35.17
2018-02-21T18:28:52.165Z,30.00
2018-02-21T18:31:20.312Z,39.47
2018-02-21T18:33:50.155Z,32.70
2018-02-21T18:36:18.333Z,33.63
2018-02-21T18:38:47.226Z,34.17
2018-02-21T18:41:15.356Z,34.43
2018-02-21T18:43:43.517Z,31.03
2018-02-21T18:46:11.653Z,34.03
2018-02-21T18:48:39.801Z,35.20
2018-02-21T18:51:07.936Z,38.60
2018-02-21T18:53:36.097Z,33.23
2018-02-21T18:56:04.237Z,32.83
2018-02-21T18:58:32.421Z,33.83
2018-02-21T19:01:00.704Z,32.67
2018-02-21T19:03:28.917Z,30.90
2018-02-21T19:05:57.112Z,35.27
2018-02-21T19:08:25.369Z,33.30
2018-02-21T19:10:54.358Z,32.80
2018-02-21T19:13:22.577Z,32.53
2018-02-21T19:15:50.838Z,33.10
2018-02-21T19:18:19.009Z,29.83
2018-02-21T19:20:47.223Z,30.77
2018-02-21T19:23:15.393Z,29.43
2018-02-21T19:25:43.674Z,32.87
2018-02-21T19:28:11.850Z,33.80
2018-02-21T19:30:40.060Z,29.63
2018-02-21T19:33:09.000Z,31.23
2018-02-21T19:35:37.258Z,33.87
2018-02-21T19:38:05.429Z,35.57
2018-02-21T19:40:33.628Z,31.73
2018-02-21T19:43:01.775Z,32.40
2018-02-21T19:45:29.939Z,28.93
2018-02-21T19:47:58.841Z,32.87
2018-02-21T19:50:27.004Z,32.37
2018-02-21T19:52:55.141Z,30.10
2018-02-21T19:55:23.320Z,33.20
2018-02-21T19:57:51.472Z,29.53
2018-02-21T20:00:19.604Z,31.13
2018-02-21T20:02:47.766Z,31.30
2018-02-21T20:05:15.920Z,28.67
2018-02-21T20:07:44.846Z,33.37
2018-02-21T20:10:12.998Z,27.53
2018-02-21T20:12:41.932Z,29.60
2018-02-21T20:15:10.069Z,27.80
2018-02-21T20:17:38.984Z,33.03
2018-02-21T20:20:07.120Z,34.13
2018-02-21T20:22:36.044Z,33.77
2018-02-21T20:25:04.177Z,31.77
2018-02-21T20:27:32.344Z,33.27
2018-02-21T20:30:00.494Z,35.37
2018-02-21T20:32:28.648Z,30.50
2018-02-21T20:34:56.793Z,37.50
2018-02-21T20:37:24.958Z,29.23
2018-02-21T20:39:53.092Z,32.63
2018-02-21T20:42:21.244Z,34.33
2018-02-21T20:44:49.377Z,30.17
2018-02-21T20:47:18.316Z,32.10
2018-02-21T20:49:46.452Z,27.13
2018-02-21T20:52:14.589Z,31.33
2018-02-21T20:54:42.747Z,31.37
2018-02-21T20:57:10.888Z,29.03
2018-02-21T20:59:39.049Z,29.63
2018-02-21T21:02:07.181Z,29.20
2018-02-21T21:04:35.337Z,26.87
2018-02-21T21:07:03.473Z,30.77
2018-02-21T21:09:31.629Z,33.30
2018-02-21T21:11:59.798Z,37.63
2018-02-21T21:14:28.726Z,28.37
2018-02-21T21:16:56.903Z,29.10
2018-02-21T21:19:25.028Z,29.07
2018-02-21T21:21:53.933Z,28.73
2018-02-21T21:24:22.096Z,29.00
2018-02-21T21:26:51.005Z,25.43
2018-02-21T21:29:19.985Z,25.33
2018-02-21T21:31:48.171Z,31.63
2018-02-21T21:34:17.076Z,27.93
2018-02-21T21:36:45.218Z,28.23
2018-02-21T21:39:14.191Z,28.57
2018-02-21T21:41:42.301Z,27.37
2018-02-21T21:44:10.448Z,26.00
2018-02-21T21:46:39.360Z,29.23
2018-02-21T21:49:07.492Z,27.70
2018-02-21T21:51:35.644Z,26.13
2018-02-21T21:54:03.777Z,28.73
2018-02-21T21:56:31.944Z,27.80
2018-02-21T21:59:00.086Z,30.93
2018-02-21T22:01:28.245Z,23.23
2018-02-21T22:03:56.380Z,31.93
2018-02-21T22:06:24.541Z,26.80
2018-02-21T22:08:52.685Z,28.60
2018-02-21T22:11:20.845Z,30.87
2018-02-21T22:13:48.988Z,27.30
2018-02-21T22:16:17.140Z,30.07
2018-02-21T22:18:45.293Z,34.00
2018-02-21T22:21:13.473Z,33.70
2018-02-21T22:23:41.616Z,27.30
2018-02-21T22:26:10.556Z,27.27
2018-02-21T22:28:38.692Z,27.50
2018-02-21T22:31:07.613Z,24.20
2018-02-21T22:33:35.752Z,24.17
2018-02-21T22:36:04.708Z,25.93
2018-02-21T22:38:32.853Z,28.87
2018-02-21T22:41:00.990Z,25.43
2018-02-21T22:43:29.173Z,31.27
2018-02-21T22:45:57.321Z,26.67
2018-02-21T22:48:25.474Z,25.87
2018-02-21T22:50:53.608Z,30.37
2018-02-21T22:53:21.765Z,28.00
2018-02-21T22:55:50.664Z,26.00
2018-02-21T22:58:18.816Z,30.13
2018-02-21T23:00:46.953Z,26.93
2018-02-21T23:03:16.030Z,28.30
2018-02-21T23:05:44.932Z,27.83
2018-02-21T23:08:13.090Z,25.33
2018-02-21T23:10:41.228Z,25.70
2018-02-21T23:13:10.148Z,24.73
2018-02-21T23:15:38.286Z,27.60
2018-02-21T23:18:07.208Z,21.80
2018-02-21T23:20:35.365Z,23.77
2018-02-21T23:23:03.505Z,23.37
2018-02-21T23:25:31.676Z,24.07
2018-02-21T23:27:59.810Z,29.87
2018-02-21T23:30:28.735Z,25.60
2018-02-21T23:32:56.877Z,24.00
2018-02-21T23:35:25.029Z,28.27
2018-02-21T23:37:53.168Z,25.77
2018-02-21T23:40:21.328Z,24.73
2018-02-21T23:42:49.464Z,27.63
2018-02-21T23:45:17.629Z,26.73
2018-02-21T23:47:45.777Z,23.10
2018-02-21T23:50:14.696Z,23.70
2018-02-21T23:52:42.832Z,23.10
2018-02-21T23:55:10.988Z,27.73
2018-02-21T23:57:39.128Z,24.70
